Time;durP1;ratioP1;P1;durP2;ratioP2;P2;SDS_P1;SDS_P2;PMS_P1;PMS_P2;Temp;Humidity;BMP_temperature;BMP_pressure;BME280_temperature;BME280_humidity;BME280_pressure;Samples;Min_cycle;Max_cycle;Signal;HPM_P1;HPM_P2
2022/08/09 00:02:31;;;;;;;2.45;0.60;;;;;;;21.74;70.26;102376.59;7385222;19;20028;-66
2022/08/09 00:05:00;;;;;;;1.90;0.50;;;;;;;21.72;69.63;102375.97;7378998;19;20014;-66
2022/08/09 00:07:47;;;;;;;2.38;0.50;;;;;;;21.70;69.74;102376.13;7385803;19;20486;-65
2022/08/09 00:10:14;;;;;;;3.25;0.50;;;;;;;21.71;69.52;102377.81;7384705;19;20033;-67
2022/08/09 00:12:50;;;;;;;1.63;0.50;;;;;;;21.72;69.45;102375.97;7383654;19;20085;-66
2022/08/09 00:15:22;;;;;;;2.58;0.40;;;;;;;21.75;69.09;102383.63;7383734;19;20021;-66
2022/08/09 00:18:09;;;;;;;3.67;0.70;;;;;;;21.75;68.91;102379.09;7383990;19;20021;-63
2022/08/09 00:20:40;;;;;;;1.50;0.40;;;;;;;21.75;68.73;102379.09;7381827;19;20011;-64
2022/08/09 00:23:18;;;;;;;1.50;0.50;;;;;;;21.77;69.23;102377.06;7384472;19;20010;-63
2022/08/09 00:26:06;;;;;;;2.42;0.60;;;;;;;21.78;69.04;102375.22;7382922;19;20019;-63
2022/08/09 00:28:38;;;;;;;2.08;0.40;;;;;;;21.78;68.98;102372.53;7383947;19;20014;-63
2022/08/09 00:31:05;;;;;;;2.95;0.47;;;;;;;21.79;68.82;102371.50;7383121;19;20049;-63
2022/08/09 00:33:54;;;;;;;2.22;0.50;;;;;;;21.79;69.32;102365.31;7381351;19;20374;-64
2022/08/09 00:36:23;;;;;;;1.50;0.40;;;;;;;21.79;69.92;102368.00;7383082;19;20573;-63
2022/08/09 00:38:57;;;;;;;3.25;0.60;;;;;;;21.76;69.07;102364.66;7382571;19;20047;-63
2022/08/09 00:41:24;;;;;;;2.58;0.50;;;;;;;21.73;69.85;102370.41;7383287;19;20571;-63
2022/08/09 00:44:12;;;;;;;5.10;0.70;;;;;;;21.70;69.96;102361.91;7387990;19;20011;-64
2022/08/09 00:46:54;;;;;;;1.45;0.50;;;;;;;21.66;70.19;102361.47;7396905;19;20014;-63
2022/08/09 00:49:33;;;;;;;1.48;0.47;;;;;;;21.67;70.41;102357.75;7395786;19;20015;-63
2022/08/09 00:52:04;;;;;;;0.95;0.50;;;;;;;21.67;70.30;102365.81;7396893;19;20391;-63
2022/08/09 00:54:41;;;;;;;3.33;0.60;;;;;;;21.69;70.33;102365.59;7395940;19;20006;-63
2022/08/09 00:57:11;;;;;;;3.03;0.60;;;;;;;21.69;70.51;102368.28;7398226;19;20024;-63
2022/08/09 00:59:43;;;;;;;2.28;0.57;;;;;;;21.67;71.01;102367.66;7396519;19;20018;-63
2022/08/09 01:02:23;;;;;;;3.75;0.60;;;;;;;21.65;71.02;102364.31;7397623;19;20530;-64
2022/08/09 01:05:02;;;;;;;2.65;0.70;;;;;;;21.61;71.22;102358.50;7394138;19;20014;-63
2022/08/09 01:07:54;;;;;;;2.88;0.77;;;;;;;21.58;71.61;102356.22;7397703;19;20474;-64
2022/08/09 01:10:51;;;;;;;2.47;0.63;;;;;;;21.57;71.99;102359.06;7391669;19;20018;-63
2022/08/09 01:13:35;;;;;;;3.50;0.80;;;;;;;21.51;71.95;102363.34;7396543;19;20014;-63
2022/08/09 01:16:29;;;;;;;3.60;0.63;;;;;;;21.49;71.72;102367.19;7396952;19;20194;-64
2022/08/09 01:19:01;;;;;;;5.50;0.80;;;;;;;21.45;72.35;102365.91;7393426;19;20015;-63
2022/08/09 01:22:13;;;;;;;6.30;1.20;;;;;;;21.43;72.29;102370.66;7395751;19;20045;-64
2022/08/09 01:25:13;;;;;;;3.58;0.80;;;;;;;21.39;72.18;102367.50;7394670;19;20015;-64
2022/08/09 01:27:51;;;;;;;2.87;0.80;;;;;;;21.32;72.56;102366.59;7396428;19;20049;-64
2022/08/09 01:30:21;;;;;;;3.10;1.00;;;;;;;21.27;72.68;102364.47;7396755;19;20033;-64
2022/08/09 01:33:18;;;;;;;2.42;1.00;;;;;;;21.24;72.95;102369.34;7396172;19;20025;-64
2022/08/09 01:35:52;;;;;;;3.97;1.10;;;;;;;21.20;72.86;102365.38;7394272;19;20017;-64
2022/08/09 01:38:25;;;;;;;2.85;0.90;;;;;;;21.12;73.47;102362.78;7394255;19;20021;-64
2022/08/09 01:41:01;;;;;;;1.73;0.80;;;;;;;21.08;73.56;102369.50;7392118;19;20018;-64
2022/08/09 01:43:37;;;;;;;1.88;0.75;;;;;;;21.06;73.87;102369.69;7396048;19;20022;-63
2022/08/09 01:46:24;;;;;;;6.78;1.00;;;;;;;21.03;74.04;102363.88;7396578;19;20014;-64
2022/08/09 01:48:58;;;;;;;3.45;0.95;;;;;;;21.02;73.89;102365.72;7393652;19;20268;-64
2022/08/09 01:51:40;;;;;;;3.63;0.75;;;;;;;21.01;74.27;102365.91;7396014;19;20058;-64
2022/08/09 01:54:12;;;;;;;3.70;0.98;;;;;;;20.98;74.14;102367.06;7395157;19;20014;-64
2022/08/09 01:56:44;;;;;;;3.35;1.10;;;;;;;20.96;74.39;102376.31;7387976;19;20011;-64
2022/08/09 01:59:20;;;;;;;2.55;0.80;;;;;;;20.95;74.51;102380.84;7386999;19;20017;-63
2022/08/09 02:01:53;;;;;;;4.43;0.70;;;;;;;20.92;74.30;102387.41;7387669;19;20745;-63
2022/08/09 02:04:28;;;;;;;2.20;0.80;;;;;;;20.92;74.84;102381.22;7387069;19;20048;-63
2022/08/09 02:07:09;;;;;;;2.20;0.73;;;;;;;20.89;74.89;102382.41;7388687;19;20490;-63
2022/08/09 02:10:01;;;;;;;1.92;1.10;;;;;;;20.86;74.65;102377.44;7385339;19;20010;-63
2022/08/09 02:12:32;;;;;;;1.90;0.90;;;;;;;20.86;74.78;102377.44;7388991;19;20032;-63
2022/08/09 02:15:01;;;;;;;1.33;0.70;;;;;;;20.87;74.64;102378.25;7386598;19;20037;-63
2022/08/09 02:17:33;;;;;;;2.47;0.90;;;;;;;20.88;74.86;102371.88;7388963;19;20025;-62
2022/08/09 02:20:21;;;;;;;2.72;0.70;;;;;;;20.87;75.06;102368.38;7384398;19;20336;-63
2022/08/09 02:23:28;;;;;;;3.63;0.73;;;;;;;20.87;75.29;102370.22;7387370;19;20022;-63
2022/08/09 02:26:07;;;;;;;1.85;0.75;;;;;;;20.85;75.39;102386.47;7386779;19;20217;-64
2022/08/09 02:28:54;;;;;;;2.30;0.80;;;;;;;20.83;75.26;102385.78;7387231;19;20010;-63
2022/08/09 02:31:29;;;;;;;6.63;0.95;;;;;;;20.84;75.22;102379.44;7386806;19;20010;-64
2022/08/09 02:34:12;;;;;;;2.47;0.80;;;;;;;20.82;75.17;102384.16;7382917;19;20542;-63
2022/08/09 02:37:02;;;;;;;3.55;0.90;;;;;;;20.79;75.32;102381.00;7384147;19;20374;-64
2022/08/09 02:39:37;;;;;;;3.92;0.80;;;;;;;20.78;75.48;102384.69;7385959;19;20049;-64
2022/08/09 02:42:15;;;;;;;2.67;0.90;;;;;;;20.78;75.62;102387.34;7388850;19;20013;-64
2022/08/09 02:44:51;;;;;;;4.82;1.10;;;;;;;20.76;76.08;102381.38;7387082;19;20063;-64
2022/08/09 02:47:22;;;;;;;1.25;0.80;;;;;;;20.73;75.63;102387.06;7387964;19;20010;-64
2022/08/09 02:50:03;;;;;;;2.15;0.80;;;;;;;20.71;76.25;102379.25;7384206;19;20485;-64
2022/08/09 02:52:45;;;;;;;4.32;1.02;;;;;;;20.69;76.28;102375.06;7382527;19;20014;-64
2022/08/09 02:55:16;;;;;;;3.88;1.30;;;;;;;20.68;76.65;102376.06;7385114;19;20011;-64
2022/08/09 02:57:48;;;;;;;2.00;1.08;;;;;;;20.66;76.40;102367.41;7386964;19;20015;-64
2022/08/09 03:00:38;;;;;;;3.65;1.08;;;;;;;20.66;76.57;102376.28;7387040;19;20031;-64
2022/08/09 03:03:24;;;;;;;2.35;0.93;;;;;;;20.69;76.81;102370.56;7385614;19;20139;-64
2022/08/09 03:06:13;;;;;;;2.17;0.70;;;;;;;20.68;76.59;102371.56;7385731;19;20011;-63
2022/08/09 03:08:45;;;;;;;3.25;0.90;;;;;;;20.69;76.50;102375.06;7382815;19;20033;-63
2022/08/09 03:11:19;;;;;;;4.00;0.90;;;;;;;20.66;76.92;102373.59;7387870;19;20383;-64
2022/08/09 03:14:07;;;;;;;1.77;1.00;;;;;;;20.65;76.46;102368.41;7385576;19;20014;-63
2022/08/09 03:16:36;;;;;;;4.05;0.85;;;;;;;20.61;77.03;102364.44;7385493;19;20007;-64
2022/08/09 03:19:11;;;;;;;3.30;1.10;;;;;;;20.58;76.93;102372.81;7381545;19;20089;-63
2022/08/09 03:21:59;;;;;;;2.80;1.13;;;;;;;20.57;77.27;102380.00;7383678;19;20017;-64
2022/08/09 03:24:28;;;;;;;7.70;2.22;;;;;;;20.54;77.44;102376.88;7384884;19;20022;-62
2022/08/09 03:27:09;;;;;;;7.70;1.10;;;;;;;20.51;77.62;102377.25;7385662;19;20011;-64
2022/08/09 03:29:38;;;;;;;2.90;1.20;;;;;;;20.47;77.62;102374.06;7385108;19;20074;-63
2022/08/09 03:32:28;;;;;;;3.35;1.00;;;;;;;20.42;77.62;102371.94;7383144;19;20014;-63
2022/08/09 03:34:57;;;;;;;2.88;0.98;;;;;;;20.43;78.24;102368.25;7380521;19;20345;-62
2022/08/09 03:37:24;;;;;;;4.68;1.10;;;;;;;20.44;77.76;102369.94;7383642;19;20033;-64
2022/08/09 03:40:12;;;;;;;3.00;0.80;;;;;;;20.44;77.61;102361.91;7384137;19;20007;-63
2022/08/09 03:42:44;;;;;;;2.10;0.90;;;;;;;20.40;77.83;102365.97;7381212;19;20018;-63
2022/08/09 03:45:13;;;;;;;5.78;1.02;;;;;;;20.37;78.28;102374.31;7384939;19;20035;-62
2022/08/09 03:47:42;;;;;;;4.18;1.55;;;;;;;20.35;78.13;102371.00;7383909;19;20010;-63
2022/08/09 03:50:13;;;;;;;4.82;1.30;;;;;;;20.34;78.13;102377.38;7379559;19;20014;-64
2022/08/09 03:52:57;;;;;;;4.10;1.48;;;;;;;20.29;77.69;102377.03;7383833;19;20018;-64
2022/08/09 03:55:25;;;;;;;3.88;1.40;;;;;;;20.22;78.18;102372.56;7381990;19;20388;-63
2022/08/09 03:57:56;;;;;;;2.78;1.30;;;;;;;20.18;78.39;102374.78;7385599;19;20510;-64
2022/08/09 04:00:44;;;;;;;4.20;1.52;;;;;;;20.13;78.57;102371.78;7383377;19;20462;-63
2022/08/09 04:03:19;;;;;;;2.85;1.10;;;;;;;20.11;78.75;102373.84;7384171;19;20041;-63
2022/08/09 04:06:07;;;;;;;3.70;1.38;;;;;;;20.12;78.90;102371.97;7382221;19;20043;-64
2022/08/09 04:08:37;;;;;;;9.48;1.58;;;;;;;20.14;78.96;102362.78;7383934;19;20037;-64
2022/08/09 04:11:04;;;;;;;4.30;1.63;;;;;;;20.18;78.76;102368.59;7383590;19;20014;-63
2022/08/09 04:13:36;;;;;;;3.20;1.27;;;;;;;20.20;78.44;102358.56;7381868;19;20022;-63
2022/08/09 04:16:23;;;;;;;3.53;1.20;;;;;;;20.19;78.31;102363.06;7383358;19;20035;-63
2022/08/09 04:18:50;;;;;;;3.45;1.20;;;;;;;20.15;78.75;102366.28;7378088;19;20354;-63
2022/08/09 04:21:19;;;;;;;3.53;1.20;;;;;;;20.14;78.54;102365.44;7383380;19;20003;-64
2022/08/09 04:23:47;;;;;;;3.17;1.40;;;;;;;20.13;78.98;102371.78;7382806;19;20030;-64
2022/08/09 04:26:20;;;;;;;4.47;1.70;;;;;;;20.06;79.19;102377.00;7383975;19;20002;-64
2022/08/09 04:28:49;;;;;;;2.78;1.23;;;;;;;20.00;79.47;102374.22;7380949;19;20018;-64
2022/08/09 04:31:16;;;;;;;3.40;1.52;;;;;;;19.97;79.73;102380.75;7384062;19;20366;-64
2022/08/09 04:33:43;;;;;;;4.10;1.73;;;;;;;19.95;79.65;102371.25;7380790;19;20006;-64
2022/08/09 04:36:20;;;;;;;2.83;1.52;;;;;;;19.91;79.94;102370.75;7379983;19;20018;-64
2022/08/09 04:38:49;;;;;;;4.22;1.52;;;;;;;19.93;79.79;102371.44;7383127;19;20018;-65
2022/08/09 04:41:18;;;;;;;4.63;1.58;;;;;;;19.91;79.61;102376.09;7381656;19;20068;-65
2022/08/09 04:43:50;;;;;;;3.03;1.23;;;;;;;19.91;80.00;102388.66;7381363;19;20490;-64
2022/08/09 04:46:33;;;;;;;5.18;1.50;;;;;;;19.89;79.49;102385.31;7382887;19;20014;-64
2022/08/09 04:49:20;;;;;;;4.85;1.75;;;;;;;19.88;79.70;102389.00;7381072;19;20588;-65
2022/08/09 04:52:07;;;;;;;3.80;1.63;;;;;;;19.86;79.58;102394.50;7381860;19;20039;-64
2022/08/09 04:54:35;;;;;;;7.80;1.73;;;;;;;19.83;79.86;102400.22;7378751;19;20599;-65
2022/08/09 04:57:03;;;;;;;3.70;1.80;;;;;;;19.83;79.67;102388.69;7381880;19;20011;-65
2022/08/09 04:59:34;;;;;;;6.70;2.30;;;;;;;19.81;79.78;102386.19;7382987;19;20007;-64
2022/08/09 05:02:01;;;;;;;5.22;2.03;;;;;;;19.79;79.91;102393.56;7382257;19;20098;-64
2022/08/09 05:04:28;;;;;;;5.78;2.15;;;;;;;19.76;80.00;102401.91;7380592;19;20037;-63
2022/08/09 05:06:56;;;;;;;5.60;2.08;;;;;;;19.72;80.37;102397.06;7382949;19;20011;-64
2022/08/09 05:09:24;;;;;;;4.53;1.88;;;;;;;19.68;80.29;102391.25;7382677;19;20021;-65
2022/08/09 05:12:09;;;;;;;5.63;2.00;;;;;;;19.67;80.69;102386.09;7382341;19;20021;-64
2022/08/09 05:14:38;;;;;;;4.60;2.40;;;;;;;19.69;80.68;102397.44;7381871;19;20413;-64
2022/08/09 05:17:07;;;;;;;4.75;2.17;;;;;;;19.70;81.22;102399.94;7381782;19;20022;-65
2022/08/09 05:20:04;;;;;;;4.97;2.20;;;;;;;19.71;80.78;102406.94;7379751;19;20141;-65
2022/08/09 05:22:31;;;;;;;11.02;2.20;;;;;;;19.71;81.00;102406.13;7383421;19;20015;-64
2022/08/09 05:25:19;;;;;;;4.78;2.17;;;;;;;19.69;80.74;102411.63;7381069;19;20011;-64
2022/08/09 05:27:46;;;;;;;5.13;2.35;;;;;;;19.67;81.28;102407.44;7382863;19;20027;-64
2022/08/09 05:30:16;;;;;;;4.70;2.00;;;;;;;19.61;81.30;102416.97;7382007;19;20236;-64
2022/08/09 05:32:45;;;;;;;7.35;2.67;;;;;;;19.60;81.91;102416.19;7387623;19;20014;-63
2022/08/09 05:35:16;;;;;;;4.00;2.13;;;;;;;19.59;81.76;102417.19;7385725;19;20071;-65
2022/08/09 05:37:43;;;;;;;4.40;2.10;;;;;;;19.62;82.11;102419.50;7386698;19;20086;-65
2022/08/09 05:40:13;;;;;;;3.90;1.88;;;;;;;19.65;81.80;102426.34;7388091;19;20379;-65
2022/08/09 05:42:41;;;;;;;3.65;1.73;;;;;;;19.69;81.53;102421.47;7389891;19;20045;-65
2022/08/09 05:45:09;;;;;;;5.70;2.88;;;;;;;19.71;81.69;102416.81;7386609;19;20026;-64
2022/08/09 05:47:41;;;;;;;9.30;2.83;;;;;;;19.72;81.52;102421.13;7389821;19;20347;-64
2022/08/09 05:50:18;;;;;;;5.82;2.65;;;;;;;19.72;81.90;102427.31;7386755;19;20128;-65
2022/08/09 05:53:05;;;;;;;9.13;3.45;;;;;;;19.72;81.99;102427.31;7386899;19;20014;-63
2022/08/09 05:55:47;;;;;;;8.02;2.83;;;;;;;19.71;81.89;102433.66;7385899;19;20539;-64
2022/08/09 05:58:16;;;;;;;7.63;3.60;;;;;;;19.72;82.61;102446.00;7389551;19;20025;-63
2022/08/09 06:00:44;;;;;;;6.93;2.85;;;;;;;19.71;83.01;102444.31;7388052;19;20018;-64
2022/08/09 06:03:18;;;;;;;6.57;3.03;;;;;;;19.72;82.95;102453.19;7388409;19;20002;-65
2022/08/09 06:05:46;;;;;;;6.47;2.67;;;;;;;19.72;82.71;102458.53;7385610;19;20022;-64
2022/08/09 06:08:31;;;;;;;6.90;3.38;;;;;;;19.75;82.61;102467.03;7390163;19;20017;-65
2022/08/09 06:10:59;;;;;;;11.15;4.63;;;;;;;19.75;82.80;102469.72;7387625;19;20025;-65
2022/08/09 06:13:26;;;;;;;12.00;4.75;;;;;;;19.75;82.55;102469.72;7386509;19;20010;-63
2022/08/09 06:15:59;;;;;;;;;;;;;;;19.73;82.66;102474.38;7384471;19;20056;-65
2022/08/09 06:18:27;;;;;;;12.27;5.57;;;;;;;19.71;82.46;102472.91;7389233;19;20340;-64
2022/08/09 06:20:56;;;;;;;11.77;5.10;;;;;;;19.67;82.27;102480.41;7385723;19;20014;-63
2022/08/09 06:23:25;;;;;;;10.25;5.35;;;;;;;19.62;82.39;102480.94;7387655;19;20549;-64
2022/08/09 06:26:14;;;;;;;15.75;6.55;;;;;;;19.56;82.77;102478.09;7388572;19;20487;-64
2022/08/09 06:28:48;;;;;;;11.93;6.00;;;;;;;19.47;83.12;102471.94;7385786;19;20355;-64
2022/08/09 06:31:27;;;;;;;19.58;8.07;;;;;;;19.40;84.31;102478.94;7387926;19;20010;-66
2022/08/09 06:34:05;;;;;;;17.60;7.65;;;;;;;19.34;84.71;102482.31;7384471;19;20371;-64
2022/08/09 06:36:32;;;;;;;17.63;7.57;;;;;;;19.29;85.62;102478.47;7386527;19;20010;-64
2022/08/09 06:38:59;;;;;;;19.27;8.18;;;;;;;19.27;85.92;102485.81;7387569;19;20106;-64
2022/08/09 06:41:34;;;;;;;23.13;8.68;;;;;;;19.15;86.32;102496.81;7386391;19;20007;-63
2022/08/09 06:44:21;;;;;;;26.75;10.13;;;;;;;19.14;87.38;102497.84;7387217;19;20025;-64
2022/08/09 06:46:50;;;;;;;24.00;9.48;;;;;;;19.12;88.04;102502.50;7387738;19;20037;-64
2022/08/09 06:49:22;;;;;;;26.42;9.13;;;;;;;19.14;87.95;102499.69;7384784;19;20034;-65
2022/08/09 06:52:11;;;;;;;24.92;10.00;;;;;;;19.16;88.25;102503.84;7387529;19;20450;-64
2022/08/09 06:54:42;;;;;;;22.02;9.80;;;;;;;19.20;88.68;102504.31;7385905;19;20350;-64
2022/08/09 06:57:13;;;;;;;26.17;11.05;;;;;;;19.27;89.17;102507.16;7387003;19;20014;-66
2022/08/09 06:59:42;;;;;;;26.83;10.43;;;;;;;19.31;88.59;102511.16;7386793;19;20039;-67
2022/08/09 07:02:29;;;;;;;24.48;9.65;;;;;;;19.36;87.87;102504.31;7385170;19;20012;-63
2022/08/09 07:04:59;;;;;;;22.35;8.43;;;;;;;19.43;88.05;102510.66;7382731;19;20216;-63
2022/08/09 07:07:26;;;;;;;24.67;9.05;;;;;;;19.50;88.00;102518.88;7387299;19;20011;-63
2022/08/09 07:10:15;;;;;;;21.15;8.45;;;;;;;19.54;87.40;102518.34;7384241;19;20003;-63
2022/08/09 07:12:57;;;;;;;17.90;8.68;;;;;;;19.59;86.95;102510.66;7385468;19;20018;-64
2022/08/09 07:15:24;;;;;;;19.70;8.40;;;;;;;19.63;86.56;102513.81;7382885;19;20074;-64
2022/08/09 07:18:11;;;;;;;22.42;8.50;;;;;;;19.70;85.98;102519.31;7385264;19;20359;-65
2022/08/09 07:20:40;;;;;;;15.63;7.75;;;;;;;19.70;85.67;102522.00;7382500;19;20569;-65
2022/08/09 07:23:11;;;;;;;18.13;8.35;;;;;;;19.70;85.73;102520.16;7383340;19;20496;-65
2022/08/09 07:25:46;;;;;;;17.48;8.18;;;;;;;19.71;85.82;102518.31;7383710;19;20014;-65
2022/08/09 07:28:17;;;;;;;;;;;;;;;19.75;86.19;102515.13;7386026;19;20014;-64
2022/08/09 07:30:55;;;;;;;16.23;6.53;;;;;;;19.78;85.46;102509.44;7384477;19;19922;-64
2022/08/09 07:33:22;;;;;;;17.17;6.80;;;;;;;19.81;85.33;102506.41;7382880;19;20014;-65
2022/08/09 07:35:49;;;;;;;14.45;6.75;;;;;;;19.86;85.78;102512.06;7379542;19;20345;-65
2022/08/09 07:38:20;;;;;;;16.33;6.85;;;;;;;19.99;84.96;102511.53;7384823;19;20054;-64
2022/08/09 07:40:55;;;;;;;13.15;6.15;;;;;;;20.01;84.55;102507.66;7384959;19;20015;-64
2022/08/09 07:43:40;;;;;;;14.73;6.63;;;;;;;20.07;84.58;102501.63;7386282;19;20017;-65
2022/08/09 07:46:21;;;;;;;14.20;6.57;;;;;;;20.13;84.28;102504.63;7386556;19;20006;-64
2022/08/09 07:48:53;;;;;;;14.95;6.65;;;;;;;20.19;84.17;102506.59;7383652;19;20118;-64
2022/08/09 07:51:25;;;;;;;;;;;;;;;20.25;83.79;102503.25;7387176;19;20037;-66
2022/08/09 07:54:13;;;;;;;10.23;5.47;;;;;;;20.38;83.78;102498.16;7381619;19;19933;-65
2022/08/09 07:56:40;;;;;;;9.50;5.32;;;;;;;20.55;83.52;102505.09;7383423;19;20018;-65
2022/08/09 07:59:17;;;;;;;13.55;4.68;;;;;;;20.77;82.17;102512.31;7384327;19;20014;-65
2022/08/09 08:02:01;;;;;;;11.98;5.10;;;;;;;20.89;81.25;102502.84;7383016;19;20010;-65
2022/08/09 08:04:28;;;;;;;11.35;5.20;;;;;;;20.96;80.84;102505.66;7381302;19;20014;-64
2022/08/09 08:06:59;;;;;;;8.55;4.20;;;;;;;21.04;79.59;102510.09;7384092;19;20011;-67
2022/08/09 08:09:46;;;;;;;7.45;3.67;;;;;;;21.06;79.60;102516.09;7383552;19;20014;-68
2022/08/09 08:12:25;;;;;;;9.70;2.95;;;;;;;21.02;79.40;102517.47;7383900;19;20007;-67
2022/08/09 08:14:56;;;;;;;5.93;2.65;;;;;;;21.02;78.89;102507.59;7383415;19;20247;-66
2022/08/09 08:17:25;;;;;;;9.15;3.13;;;;;;;20.97;78.98;102515.34;7382858;19;20427;-66
2022/08/09 08:20:12;;;;;;;12.07;3.67;;;;;;;20.95;78.54;102514.69;7380534;19;20011;-63
2022/08/09 08:22:40;;;;;;;6.93;3.05;;;;;;;20.96;78.55;102524.38;7384333;19;20014;-64
2022/08/09 08:25:08;;;;;;;6.45;2.85;;;;;;;20.98;78.55;102522.34;7382272;19;20021;-62
2022/08/09 08:27:40;;;;;;;6.40;3.10;;;;;;;21.00;78.49;102512.28;7383103;19;20363;-63
2022/08/09 08:30:10;;;;;;;8.52;2.90;;;;;;;21.03;79.15;102508.44;7381469;19;20082;-63
2022/08/09 08:32:37;;;;;;;7.13;2.03;;;;;;;21.07;77.76;102523.13;7384064;19;20046;-63
2022/08/09 08:35:17;;;;;;;6.80;2.08;;;;;;;21.13;76.62;102517.06;7358856;19;20542;-63
2022/08/09 08:37:48;;;;;;;4.72;1.50;;;;;;;21.14;76.01;102514.22;7373724;19;20458;-63
2022/08/09 08:40:36;;;;;;;2.22;1.17;;;;;;;21.16;76.54;102522.91;7382724;19;20014;-62
2022/08/09 08:43:05;;;;;;;4.07;1.33;;;;;;;21.21;75.83;102525.03;7382925;19;20134;-63
2022/08/09 08:45:49;;;;;;;2.58;1.25;;;;;;;21.26;76.33;102531.53;7382124;19;20019;-65
2022/08/09 08:48:31;;;;;;;2.67;0.80;;;;;;;21.33;74.30;102527.09;7379168;19;20443;-66
2022/08/09 08:50:58;;;;;;;2.50;0.88;;;;;;;21.39;72.37;102527.38;7379628;19;20309;-69
2022/08/09 08:53:26;;;;;;;4.68;0.80;;;;;;;21.45;70.74;102532.00;7380298;19;20085;-67
2022/08/09 08:56:04;;;;;;;2.65;0.60;;;;;;;21.51;70.27;102532.13;7378565;19;20434;-64
2022/08/09 08:58:32;;;;;;;2.95;1.08;;;;;;;21.58;70.37;102538.44;7381331;19;20010;-65
2022/08/09 09:01:02;;;;;;;4.22;1.00;;;;;;;21.65;70.48;102527.78;7380920;19;20019;-63
2022/08/09 09:03:46;;;;;;;2.47;0.47;;;;;;;21.76;68.04;102527.34;7376987;19;20015;-62
2022/08/09 09:06:18;;;;;;;2.60;0.60;;;;;;;21.84;67.73;102537.16;7388612;19;20010;-63
2022/08/09 09:08:48;;;;;;;1.38;0.40;;;;;;;21.92;66.58;102529.84;7390544;19;20025;-64
2022/08/09 09:11:19;;;;;;;1.48;0.50;;;;;;;21.94;66.78;102527.00;7390611;19;20017;-66
2022/08/09 09:13:49;;;;;;;1.23;0.50;;;;;;;21.97;67.24;102524.78;7389131;19;20426;-63
2022/08/09 09:16:31;;;;;;;2.03;0.60;;;;;;;22.05;67.55;102521.16;7389268;19;20031;-64
2022/08/09 09:19:03;;;;;;;3.00;0.60;;;;;;;22.13;66.73;102532.63;7387858;19;20429;-64
2022/08/09 09:22:08;;;;;;;0.90;0.50;;;;;;;22.25;65.88;102526.78;7389553;19;20021;-66
2022/08/09 09:24:49;;;;;;;1.73;0.50;;;;;;;22.40;63.97;102524.91;7389912;19;20021;-63
2022/08/09 09:27:25;;;;;;;1.90;0.50;;;;;;;22.50;63.85;102520.88;7387970;19;20015;-64
2022/08/09 09:30:12;;;;;;;4.20;0.40;;;;;;;22.63;63.14;102527.41;7386470;19;20014;-64
2022/08/09 09:33:10;;;;;;;1.75;0.43;;;;;;;22.77;59.95;102519.34;7387265;19;20034;-65
2022/08/09 09:36:00;;;;;;;2.33;0.50;;;;;;;22.87;60.36;102519.03;7385997;19;20296;-66
2022/08/09 09:38:55;;;;;;;1.40;0.50;;;;;;;23.01;61.12;102523.47;7389591;19;20021;-66
2022/08/09 09:41:25;;;;;;;2.42;0.50;;;;;;;23.15;60.67;102521.75;7387379;19;20030;-66
2022/08/09 09:44:02;;;;;;;1.83;0.50;;;;;;;23.24;60.42;102517.91;7388447;19;20501;-66
2022/08/09 09:46:44;;;;;;;1.38;0.40;;;;;;;23.34;59.34;102521.91;7389101;19;20015;-66
2022/08/09 09:49:22;;;;;;;2.10;0.40;;;;;;;23.37;58.14;102516.13;7386668;19;20074;-64
2022/08/09 09:52:11;;;;;;;2.08;0.40;;;;;;;23.46;57.59;102519.56;7387720;19;20829;-63
2022/08/09 09:55:06;;;;;;;3.45;0.45;;;;;;;23.53;56.42;102511.53;7389494;19;20490;-64
2022/08/09 09:57:58;;;;;;;3.53;0.43;;;;;;;23.60;54.92;102513.25;7390868;19;20029;-64
2022/08/09 10:00:27;;;;;;;0.55;0.35;;;;;;;23.69;55.15;102513.91;7388309;19;20021;-62
2022/08/09 10:02:54;;;;;;;1.35;0.50;;;;;;;23.77;54.59;102511.88;7388863;19;20021;-63
2022/08/09 10:05:23;;;;;;;2.03;0.50;;;;;;;23.84;54.87;102512.75;7385457;19;20022;-63
2022/08/09 10:08:04;;;;;;;3.15;0.50;;;;;;;23.99;53.11;102512.63;7390007;19;20528;-64
2022/08/09 10:10:57;;;;;;;2.97;0.43;;;;;;;24.05;53.69;102506.44;7388561;19;20017;-62
2022/08/09 10:13:48;;;;;;;2.65;0.50;;;;;;;24.11;53.42;102513.72;7386663;19;20021;-63
2022/08/09 10:16:27;;;;;;;3.45;0.60;;;;;;;24.16;53.43;102513.94;7387662;19;20090;-63
2022/08/09 10:19:14;;;;;;;1.60;0.50;;;;;;;24.26;53.64;102511.75;7384099;19;20010;-65
2022/08/09 10:21:47;;;;;;;2.28;0.57;;;;;;;24.37;53.36;102510.31;7388927;19;20006;-66
2022/08/09 10:24:18;;;;;;;2.38;0.73;;;;;;;24.42;52.85;102502.47;7386112;19;20041;-66
2022/08/09 10:27:02;;;;;;;4.88;1.05;;;;;;;24.47;53.47;102499.16;7389082;19;20331;-66
2022/08/09 10:29:42;;;;;;;2.55;0.60;;;;;;;24.46;53.83;102494.81;7387370;19;20263;-67
2022/08/09 10:32:29;;;;;;;1.85;0.68;;;;;;;24.50;53.66;102499.59;7387455;19;20778;-66
2022/08/09 10:35:09;;;;;;;1.30;0.50;;;;;;;24.54;53.01;102498.13;7385462;19;20082;-66
2022/08/09 10:37:38;;;;;;;2.13;0.60;;;;;;;24.57;53.45;102489.66;7386366;19;20018;-67
2022/08/09 10:40:08;;;;;;;3.83;0.60;;;;;;;24.58;53.33;102488.59;7386475;19;20040;-67
2022/08/09 10:42:55;;;;;;;3.47;0.70;;;;;;;24.59;54.05;102500.22;7387242;19;20017;-67
2022/08/09 10:45:23;;;;;;;2.10;0.60;;;;;;;24.60;53.42;102486.56;7387389;19;20019;-68
2022/08/09 10:48:15;;;;;;;4.57;0.90;;;;;;;24.62;53.20;102495.28;7385951;19;20350;-66
2022/08/09 10:51:30;;;;;;;2.83;0.70;;;;;;;24.68;53.25;102491.75;7383719;19;20014;-66
2022/08/09 10:54:10;;;;;;;2.83;0.80;;;;;;;24.70;53.53;102484.28;7386085;19;20011;-66
2022/08/09 10:56:42;;;;;;;2.83;0.52;;;;;;;24.77;52.75;102495.06;7385754;19;20074;-67
2022/08/09 10:59:29;;;;;;;2.40;0.50;;;;;;;24.83;51.22;102494.25;7384625;19;20098;-66
2022/08/09 11:02:34;;;;;;;3.03;0.70;;;;;;;24.80;51.34;102483.06;7384800;19;20373;-67
2022/08/09 11:05:21;;;;;;;3.38;0.70;;;;;;;24.83;50.76;102482.66;7383592;19;20021;-63
2022/08/09 11:07:56;;;;;;;1.35;0.55;;;;;;;24.83;50.63;102488.03;7387151;19;20002;-68
2022/08/09 11:10:57;;;;;;;3.53;0.55;;;;;;;24.85;48.97;102476.00;7384767;19;20015;-62
2022/08/09 11:13:34;;;;;;;1.08;0.50;;;;;;;24.89;48.68;102479.19;7383686;19;20017;-63
2022/08/09 11:16:33;;;;;;;7.82;0.57;;;;;;;24.96;48.61;102478.13;7388738;19;20010;-61
2022/08/09 11:19:04;;;;;;;4.13;0.73;;;;;;;25.01;48.34;102486.41;7381285;19;20112;-64
2022/08/09 11:22:01;;;;;;;4.13;0.70;;;;;;;25.04;47.87;102472.50;7386569;19;20018;-63
2022/08/09 11:25:09;;;;;;;2.13;0.52;;;;;;;25.02;48.57;102468.38;7386625;19;20056;-63
2022/08/09 11:27:42;;;;;;;1.45;0.50;;;;;;;25.02;48.79;102458.44;7385841;19;20203;-62
2022/08/09 11:30:32;;;;;;;5.47;0.70;;;;;;;25.07;47.30;102463.19;7384515;19;20003;-61
2022/08/09 11:33:16;;;;;;;1.13;0.40;;;;;;;25.05;47.03;102470.66;7384914;19;20021;-63
2022/08/09 11:35:46;;;;;;;3.78;0.50;;;;;;;25.06;47.18;102462.38;7384368;19;20021;-63
2022/08/09 11:38:23;;;;;;;2.42;0.50;;;;;;;25.10;47.17;102458.22;7384603;19;20011;-63
2022/08/09 11:41:28;;;;;;;2.72;0.60;;;;;;;25.21;46.05;102466.69;7383724;19;20382;-62
2022/08/09 11:44:06;;;;;;;7.00;0.50;;;;;;;25.24;45.63;102452.81;7382950;19;20014;-62
2022/08/09 11:46:51;;;;;;;2.78;0.73;;;;;;;25.30;45.43;102450.09;7386428;19;20014;-62
2022/08/09 11:49:57;;;;;;;2.88;0.60;;;;;;;25.31;45.83;102449.06;7382374;19;20015;-65
2022/08/09 11:52:59;;;;;;;2.10;0.75;;;;;;;25.35;45.62;102447.59;7382538;19;20025;-65
2022/08/09 11:55:48;;;;;;;1.87;0.60;;;;;;;25.37;45.57;102455.47;7383240;19;20019;-64
2022/08/09 11:58:29;;;;;;;1.90;0.50;;;;;;;25.48;45.14;102449.44;7384475;19;20034;-68
2022/08/09 12:01:04;;;;;;;2.20;0.80;;;;;;;25.47;44.88;102442.38;7385076;19;20014;-68
2022/08/09 12:03:42;;;;;;;1.75;0.82;;;;;;;25.49;45.76;102443.84;7383165;19;20390;-69
2022/08/09 12:06:25;;;;;;;1.63;0.68;;;;;;;25.50;46.14;102436.56;7385181;19;20011;-69
2022/08/09 12:08:59;;;;;;;2.38;0.50;;;;;;;25.52;45.73;102435.31;7384383;19;20027;-66
2022/08/09 12:11:27;;;;;;;2.33;0.70;;;;;;;25.56;45.75;102419.56;7385844;19;20029;-67
2022/08/09 12:14:05;;;;;;;2.78;0.60;;;;;;;25.63;46.25;102427.66;7382635;19;20018;-69